LOT24Y EPGD-LYBE
Flight info
| Callsign | LOT24Y |
|---|---|
| Flight time | 1h 36m |
| Altitude | 39000 |
| Route | IRLUN3H IRLUN N133 POLON Z169 BABKO DCT PARAK DCT TISAK TISAK2C |
| Aircraft | B738/M-SDE2E3FGHIRWXY/LB1 |
Departure
| Time | 2026-04-30 18:32 |
|---|---|
| Airport | Gdańsk Lech Wałęsa Airport (EPGD) |
Arrival
| Time | 2026-04-30 20:08 |
|---|---|
| Airport | Belgrade Nikola Tesla Airport (LYBE) |
| Time | Latitude | Longitude | Altitude | Speed | Heading |
|---|---|---|---|---|---|
| 2026-04-30 17:39 | 54.38208 | 18.46267 | 467 ft | 0 kts | 18° |
| 2026-04-30 18:20 | 54.38206 | 18.46265 | 467 ft | 3 kts | 18° |
| 2026-04-30 18:20 | 54.38180 | 18.46253 | 466 ft | 4 kts | 11° |
| 2026-04-30 18:21 | 54.38154 | 18.46247 | 462 ft | 4 kts | 6° |
| 2026-04-30 18:21 | 54.38127 | 18.46243 | 464 ft | 4 kts | 6° |
| 2026-04-30 18:21 | 54.38103 | 18.46236 | 464 ft | 2 kts | 18° |
| 2026-04-30 18:21 | 54.38080 | 18.46219 | 463 ft | 4 kts | 34° |
| 2026-04-30 18:22 | 54.38062 | 18.46188 | 464 ft | 4 kts | 63° |
| 2026-04-30 18:22 | 54.38059 | 18.46128 | 466 ft | 0 kts | 113° |
| 2026-04-30 18:25 | 54.38053 | 18.46153 | 467 ft | 7 kts | 114° |
| 2026-04-30 18:25 | 54.38004 | 18.46343 | 467 ft | 9 kts | 113° |
| 2026-04-30 18:25 | 54.37980 | 18.46440 | 470 ft | 9 kts | 113° |
| 2026-04-30 18:26 | 54.37924 | 18.46664 | 472 ft | 13 kts | 113° |
| 2026-04-30 18:26 | 54.37883 | 18.46832 | 473 ft | 18 kts | 111° |
| 2026-04-30 18:26 | 54.37833 | 18.47038 | 472 ft | 19 kts | 114° |
| 2026-04-30 18:27 | 54.37734 | 18.47437 | 475 ft | 18 kts | 112° |
| 2026-04-30 18:27 | 54.37688 | 18.47625 | 474 ft | 17 kts | 112° |
| 2026-04-30 18:28 | 54.37598 | 18.47982 | 477 ft | 16 kts | 115° |
| 2026-04-30 18:28 | 54.37557 | 18.48151 | 479 ft | 15 kts | 113° |
| 2026-04-30 18:28 | 54.37466 | 18.48521 | 487 ft | 19 kts | 112° |
| 2026-04-30 18:29 | 54.37412 | 18.48737 | 486 ft | 21 kts | 112° |
| 2026-04-30 18:29 | 54.37333 | 18.49057 | 488 ft | 1 kts | 113° |
| 2026-04-30 18:30 | 54.37283 | 18.49145 | 490 ft | 9 kts | 167° |
| 2026-04-30 18:30 | 54.37179 | 18.49037 | 491 ft | 10 kts | 263° |
| 2026-04-30 18:31 | 54.37191 | 18.48923 | 492 ft | 10 kts | 295° |
| 2026-04-30 18:31 | 54.37441 | 18.47904 | 477 ft | 122 kts | 292° |
| 2026-04-30 18:32 | 54.38418 | 18.43925 | 1477 ft | 211 kts | 294° |
| 2026-04-30 18:32 | 54.39012 | 18.41540 | 2321 ft | 228 kts | 296° |
| 2026-04-30 18:32 | 54.40202 | 18.36449 | 4582 ft | 234 kts | 294° |
| 2026-04-30 18:33 | 54.40794 | 18.33685 | 5229 ft | 258 kts | 293° |
| 2026-04-30 18:33 | 54.42145 | 18.28289 | 7689 ft | 236 kts | 299° |
| 2026-04-30 18:33 | 54.42815 | 18.25706 | 8344 ft | 239 kts | 300° |
| 2026-04-30 18:34 | 54.42824 | 18.25673 | 8350 ft | 239 kts | 300° |
| 2026-04-30 18:34 | 54.43207 | 18.23125 | 8875 ft | 255 kts | 274° |
| 2026-04-30 18:34 | 54.42700 | 18.20145 | 9586 ft | 271 kts | 239° |
| 2026-04-30 18:35 | 54.42145 | 18.19024 | 9869 ft | 277 kts | 223° |
| 2026-04-30 18:35 | 54.41059 | 18.17836 | 10298 ft | 282 kts | 205° |
| 2026-04-30 18:35 | 54.39234 | 18.16511 | 10908 ft | 287 kts | 202° |
| 2026-04-30 18:36 | 54.35345 | 18.15198 | 12128 ft | 289 kts | 161° |
| 2026-04-30 18:36 | 54.33507 | 18.16600 | 12484 ft | 295 kts | 136° |
| 2026-04-30 18:36 | 54.30456 | 18.21918 | 12888 ft | 336 kts | 127° |
| 2026-04-30 18:37 | 54.28793 | 18.24897 | 13238 ft | 355 kts | 132° |
| 2026-04-30 18:37 | 54.26631 | 18.27157 | 13901 ft | 373 kts | 153° |
| 2026-04-30 18:37 | 54.24197 | 18.28774 | 14671 ft | 376 kts | 154° |
| 2026-04-30 18:37 | 54.21735 | 18.30361 | 15361 ft | 381 kts | 154° |
| 2026-04-30 18:38 | 54.19244 | 18.31987 | 16057 ft | 385 kts | 153° |
| 2026-04-30 18:38 | 54.16755 | 18.33646 | 16733 ft | 390 kts | 152° |
| 2026-04-30 18:38 | 54.14215 | 18.35357 | 17413 ft | 394 kts | 152° |
| 2026-04-30 18:38 | 54.11655 | 18.37085 | 18098 ft | 399 kts | 152° |
| 2026-04-30 18:39 | 54.09054 | 18.38838 | 18765 ft | 403 kts | 152° |
| 2026-04-30 18:39 | 54.06427 | 18.40604 | 19358 ft | 407 kts | 152° |
| 2026-04-30 18:39 | 54.03772 | 18.42384 | 19957 ft | 411 kts | 152° |
| 2026-04-30 18:39 | 54.01101 | 18.44173 | 20553 ft | 415 kts | 152° |
| 2026-04-30 18:40 | 53.98400 | 18.45979 | 21140 ft | 418 kts | 152° |
| 2026-04-30 18:40 | 53.95676 | 18.47799 | 21723 ft | 422 kts | 152° |
| 2026-04-30 18:40 | 53.92930 | 18.49629 | 22294 ft | 426 kts | 152° |
| 2026-04-30 18:40 | 53.90160 | 18.51475 | 22858 ft | 429 kts | 152° |
| 2026-04-30 18:41 | 53.87390 | 18.53318 | 23401 ft | 433 kts | 152° |
| 2026-04-30 18:41 | 53.84534 | 18.55215 | 23942 ft | 437 kts | 152° |
| 2026-04-30 18:41 | 53.81694 | 18.57104 | 24390 ft | 440 kts | 152° |
| 2026-04-30 18:41 | 53.78868 | 18.58990 | 24831 ft | 444 kts | 152° |
| 2026-04-30 18:42 | 53.75983 | 18.60914 | 25270 ft | 447 kts | 152° |
| 2026-04-30 18:42 | 53.70217 | 18.64951 | 26137 ft | 451 kts | 149° |
| 2026-04-30 18:42 | 53.67323 | 18.67077 | 26556 ft | 454 kts | 149° |
| 2026-04-30 18:45 | 53.36579 | 18.86336 | 30289 ft | 490 kts | 155° |
| 2026-04-30 18:45 | 53.33308 | 18.88037 | 30577 ft | 492 kts | 155° |
| 2026-04-30 18:45 | 53.30029 | 18.89759 | 30875 ft | 494 kts | 154° |
| 2026-04-30 18:46 | 53.26749 | 18.91487 | 31165 ft | 496 kts | 154° |
| 2026-04-30 18:46 | 53.23451 | 18.93222 | 31443 ft | 497 kts | 154° |
| 2026-04-30 18:46 | 53.20142 | 18.94957 | 31735 ft | 499 kts | 154° |
| 2026-04-30 18:46 | 53.16834 | 18.96677 | 32140 ft | 497 kts | 155° |
| 2026-04-30 18:47 | 53.13532 | 18.98375 | 32570 ft | 495 kts | 155° |
| 2026-04-30 18:47 | 53.10245 | 19.00060 | 32956 ft | 494 kts | 155° |
| 2026-04-30 18:47 | 53.06993 | 19.01733 | 33270 ft | 494 kts | 154° |
| 2026-04-30 18:47 | 53.03707 | 19.03431 | 33598 ft | 494 kts | 154° |
| 2026-04-30 18:48 | 53.00422 | 19.05130 | 33979 ft | 493 kts | 154° |
| 2026-04-30 18:48 | 52.97154 | 19.06820 | 34342 ft | 492 kts | 154° |
| 2026-04-30 18:48 | 52.93879 | 19.08510 | 34639 ft | 491 kts | 154° |
| 2026-04-30 18:48 | 52.90614 | 19.10182 | 34930 ft | 491 kts | 156° |
| 2026-04-30 18:49 | 52.87237 | 19.11403 | 35211 ft | 501 kts | 167° |
| 2026-04-30 18:49 | 52.83754 | 19.11881 | 35533 ft | 502 kts | 170° |
| 2026-04-30 18:49 | 52.80268 | 19.12233 | 35831 ft | 502 kts | 171° |
| 2026-04-30 18:49 | 52.76783 | 19.12561 | 36118 ft | 501 kts | 171° |
| 2026-04-30 18:50 | 52.73308 | 19.12898 | 36411 ft | 499 kts | 171° |
| 2026-04-30 18:50 | 52.69837 | 19.13256 | 36708 ft | 498 kts | 171° |
| 2026-04-30 18:50 | 52.66388 | 19.13633 | 36988 ft | 497 kts | 171° |
| 2026-04-30 18:50 | 52.62949 | 19.14024 | 37258 ft | 496 kts | 171° |
| 2026-04-30 18:51 | 52.59509 | 19.14423 | 37532 ft | 495 kts | 171° |
| 2026-04-30 18:51 | 52.56072 | 19.14825 | 37797 ft | 494 kts | 171° |
| 2026-04-30 18:51 | 52.52635 | 19.15227 | 38067 ft | 493 kts | 171° |
| 2026-04-30 18:51 | 52.49269 | 19.15620 | 38319 ft | 492 kts | 171° |
| 2026-04-30 18:52 | 52.45859 | 19.16016 | 38606 ft | 490 kts | 172° |
| 2026-04-30 18:52 | 52.42473 | 19.16407 | 38933 ft | 487 kts | 172° |
| 2026-04-30 18:52 | 52.39093 | 19.16796 | 39189 ft | 485 kts | 172° |
| 2026-04-30 18:52 | 52.35721 | 19.17184 | 39348 ft | 485 kts | 172° |
| 2026-04-30 18:53 | 52.32352 | 19.17572 | 39375 ft | 487 kts | 172° |
| 2026-04-30 18:53 | 52.25557 | 19.18354 | 39385 ft | 489 kts | 172° |
| 2026-04-30 18:54 | 52.18778 | 19.19127 | 39387 ft | 488 kts | 172° |
| 2026-04-30 18:54 | 52.12000 | 19.19897 | 39388 ft | 487 kts | 172° |
| 2026-04-30 18:55 | 52.05245 | 19.20663 | 39389 ft | 486 kts | 172° |
| 2026-04-30 18:55 | 51.95159 | 19.21804 | 39382 ft | 485 kts | 172° |
| 2026-04-30 18:56 | 51.85054 | 19.22941 | 39382 ft | 485 kts | 172° |
| 2026-04-30 18:57 | 51.76038 | 19.23952 | 39378 ft | 485 kts | 172° |
| 2026-04-30 18:57 | 51.69341 | 19.24700 | 39379 ft | 485 kts | 172° |
| 2026-04-30 18:58 | 51.59219 | 19.25827 | 39381 ft | 486 kts | 172° |
| 2026-04-30 18:59 | 51.49097 | 19.26948 | 39388 ft | 487 kts | 172° |
| 2026-04-30 19:00 | 51.35549 | 19.28441 | 39396 ft | 488 kts | 172° |
| 2026-04-30 19:01 | 51.21983 | 19.29927 | 39389 ft | 488 kts | 172° |
| 2026-04-30 19:02 | 51.11853 | 19.31031 | 39407 ft | 488 kts | 172° |
| 2026-04-30 19:03 | 50.98303 | 19.32500 | 39395 ft | 487 kts | 172° |
| 2026-04-30 19:04 | 50.84756 | 19.33960 | 39395 ft | 486 kts | 172° |
| 2026-04-30 19:05 | 50.71241 | 19.35408 | 39390 ft | 485 kts | 173° |
| 2026-04-30 19:06 | 50.57777 | 19.36843 | 39384 ft | 484 kts | 173° |
| 2026-04-30 19:06 | 50.47745 | 19.37907 | 39381 ft | 483 kts | 173° |
| 2026-04-30 19:07 | 50.37668 | 19.38971 | 39382 ft | 483 kts | 173° |
| 2026-04-30 19:08 | 50.24244 | 19.40381 | 39387 ft | 483 kts | 173° |
| 2026-04-30 19:09 | 50.14228 | 19.41428 | 39381 ft | 483 kts | 173° |
| 2026-04-30 19:09 | 50.07523 | 19.42126 | 39373 ft | 483 kts | 173° |
| 2026-04-30 19:10 | 49.94108 | 19.43518 | 39384 ft | 483 kts | 173° |
| 2026-04-30 19:11 | 49.84085 | 19.44553 | 39382 ft | 483 kts | 173° |
| 2026-04-30 19:12 | 49.77313 | 19.45250 | 39387 ft | 484 kts | 173° |
| 2026-04-30 19:12 | 49.70636 | 19.45935 | 39387 ft | 484 kts | 173° |
| 2026-04-30 19:13 | 49.57222 | 19.47529 | 39390 ft | 481 kts | 170° |
| 2026-04-30 19:14 | 49.50598 | 19.48838 | 39395 ft | 480 kts | 169° |
| 2026-04-30 19:14 | 49.43956 | 19.50196 | 39396 ft | 480 kts | 169° |
| 2026-04-30 19:15 | 49.37319 | 19.51507 | 39391 ft | 480 kts | 170° |
| 2026-04-30 19:15 | 49.27413 | 19.53410 | 39388 ft | 480 kts | 170° |
| 2026-04-30 19:16 | 49.20776 | 19.54674 | 39394 ft | 480 kts | 170° |
| 2026-04-30 19:17 | 49.10842 | 19.56564 | 39384 ft | 479 kts | 170° |
| 2026-04-30 19:17 | 49.00917 | 19.58446 | 39379 ft | 479 kts | 171° |
| 2026-04-30 19:18 | 48.90991 | 19.60321 | 39370 ft | 479 kts | 171° |
| 2026-04-30 19:19 | 48.84370 | 19.61567 | 39372 ft | 477 kts | 171° |
| 2026-04-30 19:19 | 48.74483 | 19.63422 | 39362 ft | 477 kts | 171° |
| 2026-04-30 19:20 | 48.67886 | 19.64656 | 39366 ft | 477 kts | 171° |
| 2026-04-30 19:21 | 48.58046 | 19.66490 | 39355 ft | 477 kts | 171° |
| 2026-04-30 19:22 | 48.48701 | 19.68225 | 39357 ft | 477 kts | 171° |
| 2026-04-30 19:23 | 48.29755 | 19.71723 | 39354 ft | 479 kts | 171° |
| 2026-04-30 19:24 | 48.19814 | 19.73548 | 39353 ft | 480 kts | 171° |
| 2026-04-30 19:25 | 48.03216 | 19.76579 | 39344 ft | 480 kts | 172° |
| 2026-04-30 19:26 | 47.89981 | 19.78982 | 39348 ft | 478 kts | 172° |
| 2026-04-30 19:27 | 47.80095 | 19.80769 | 39347 ft | 476 kts | 172° |
| 2026-04-30 19:28 | 47.70218 | 19.82547 | 39346 ft | 475 kts | 172° |
| 2026-04-30 19:29 | 47.57106 | 19.84898 | 39352 ft | 474 kts | 172° |
| 2026-04-30 19:30 | 47.44054 | 19.87226 | 39350 ft | 473 kts | 172° |
| 2026-04-30 19:31 | 47.30947 | 19.89552 | 39349 ft | 474 kts | 172° |
| 2026-04-30 19:31 | 47.21106 | 19.91291 | 38568 ft | 482 kts | 172° |
| 2026-04-30 19:32 | 47.17784 | 19.91876 | 37988 ft | 479 kts | 172° |
| 2026-04-30 19:32 | 47.14477 | 19.92458 | 37397 ft | 478 kts | 172° |
| 2026-04-30 19:32 | 47.11188 | 19.93036 | 36947 ft | 474 kts | 172° |
| 2026-04-30 19:32 | 47.07918 | 19.93609 | 36543 ft | 469 kts | 172° |
| 2026-04-30 19:33 | 47.04685 | 19.94176 | 36121 ft | 465 kts | 172° |
| 2026-04-30 19:33 | 47.01481 | 19.94737 | 35696 ft | 461 kts | 172° |
| 2026-04-30 19:33 | 46.98341 | 19.95286 | 35286 ft | 458 kts | 172° |
| 2026-04-30 19:33 | 46.95173 | 19.95840 | 34870 ft | 455 kts | 172° |
| 2026-04-30 19:34 | 46.92034 | 19.96388 | 34431 ft | 453 kts | 172° |
| 2026-04-30 19:34 | 46.89926 | 19.96756 | 34115 ft | 451 kts | 172° |
| 2026-04-30 19:34 | 46.83782 | 19.97825 | 33206 ft | 444 kts | 172° |
| 2026-04-30 19:35 | 46.80733 | 19.98355 | 32798 ft | 439 kts | 172° |
| 2026-04-30 19:35 | 46.77707 | 19.98880 | 32394 ft | 435 kts | 172° |
| 2026-04-30 19:35 | 46.74716 | 19.99399 | 31990 ft | 431 kts | 172° |
| 2026-04-30 19:35 | 46.71751 | 19.99913 | 31627 ft | 427 kts | 172° |
| 2026-04-30 19:36 | 46.68813 | 20.00421 | 31217 ft | 424 kts | 172° |
| 2026-04-30 19:36 | 46.65896 | 20.00925 | 30827 ft | 420 kts | 172° |
| 2026-04-30 19:36 | 46.60129 | 20.01921 | 29982 ft | 414 kts | 172° |
| 2026-04-30 19:37 | 46.57286 | 20.02389 | 29565 ft | 409 kts | 173° |
| 2026-04-30 19:37 | 46.54470 | 20.02853 | 29170 ft | 405 kts | 172° |
| 2026-04-30 19:37 | 46.51683 | 20.03339 | 28764 ft | 400 kts | 172° |
| 2026-04-30 19:37 | 46.48930 | 20.03825 | 28374 ft | 396 kts | 172° |
| 2026-04-30 19:38 | 46.46207 | 20.04303 | 27976 ft | 393 kts | 172° |
| 2026-04-30 19:38 | 46.43502 | 20.04773 | 27595 ft | 389 kts | 172° |
| 2026-04-30 19:38 | 46.40818 | 20.05236 | 27211 ft | 386 kts | 172° |
| 2026-04-30 19:38 | 46.38158 | 20.05693 | 26823 ft | 383 kts | 172° |
| 2026-04-30 19:39 | 46.35519 | 20.06144 | 26443 ft | 381 kts | 172° |
| 2026-04-30 19:39 | 46.32929 | 20.06586 | 26074 ft | 378 kts | 172° |
| 2026-04-30 19:39 | 46.30329 | 20.07030 | 25707 ft | 376 kts | 172° |
| 2026-04-30 19:39 | 46.27738 | 20.07471 | 25341 ft | 373 kts | 172° |
| 2026-04-30 19:40 | 46.25165 | 20.07910 | 24973 ft | 371 kts | 172° |
| 2026-04-30 19:40 | 46.22605 | 20.08346 | 24611 ft | 369 kts | 172° |
| 2026-04-30 19:40 | 46.20059 | 20.08778 | 24242 ft | 368 kts | 172° |
| 2026-04-30 19:40 | 46.17524 | 20.09209 | 23873 ft | 366 kts | 172° |
| 2026-04-30 19:41 | 46.14999 | 20.09643 | 23529 ft | 363 kts | 172° |
| 2026-04-30 19:41 | 46.12508 | 20.10090 | 23180 ft | 359 kts | 172° |
| 2026-04-30 19:41 | 46.10043 | 20.10539 | 22832 ft | 355 kts | 172° |
| 2026-04-30 19:41 | 46.07594 | 20.10986 | 22462 ft | 353 kts | 172° |
| 2026-04-30 19:42 | 46.05158 | 20.11430 | 22095 ft | 351 kts | 172° |
| 2026-04-30 19:42 | 46.02738 | 20.11870 | 21738 ft | 349 kts | 172° |
| 2026-04-30 19:42 | 46.00337 | 20.12305 | 21387 ft | 347 kts | 172° |
| 2026-04-30 19:42 | 45.97949 | 20.12737 | 21033 ft | 345 kts | 172° |
| 2026-04-30 19:43 | 45.95573 | 20.13166 | 20689 ft | 343 kts | 172° |
| 2026-04-30 19:43 | 45.93244 | 20.13586 | 20351 ft | 341 kts | 172° |
| 2026-04-30 19:43 | 45.90891 | 20.14010 | 20004 ft | 340 kts | 172° |
| 2026-04-30 19:44 | 45.86211 | 20.14852 | 19314 ft | 337 kts | 172° |
| 2026-04-30 19:44 | 45.83885 | 20.15270 | 18970 ft | 336 kts | 172° |
| 2026-04-30 19:44 | 45.81557 | 20.15688 | 18627 ft | 336 kts | 172° |
| 2026-04-30 19:44 | 45.79238 | 20.16103 | 18232 ft | 335 kts | 172° |
| 2026-04-30 19:45 | 45.76934 | 20.16516 | 17853 ft | 333 kts | 172° |
| 2026-04-30 19:45 | 45.74637 | 20.16927 | 17504 ft | 331 kts | 172° |
| 2026-04-30 19:45 | 45.72380 | 20.17331 | 17160 ft | 330 kts | 172° |
| 2026-04-30 19:45 | 45.70111 | 20.17737 | 16819 ft | 328 kts | 172° |
| 2026-04-30 19:46 | 45.67845 | 20.18141 | 16483 ft | 326 kts | 172° |
| 2026-04-30 19:46 | 45.65600 | 20.18542 | 16150 ft | 324 kts | 172° |
| 2026-04-30 19:46 | 45.63368 | 20.18940 | 15815 ft | 323 kts | 172° |
| 2026-04-30 19:46 | 45.61143 | 20.19336 | 15480 ft | 321 kts | 172° |
| 2026-04-30 19:47 | 45.58929 | 20.19730 | 15152 ft | 320 kts | 172° |
| 2026-04-30 19:47 | 45.57469 | 20.19990 | 14932 ft | 319 kts | 172° |
| 2026-04-30 19:47 | 45.54524 | 20.20514 | 14493 ft | 318 kts | 172° |
| 2026-04-30 19:47 | 45.52363 | 20.20898 | 14164 ft | 317 kts | 172° |
| 2026-04-30 19:48 | 45.50171 | 20.21287 | 13799 ft | 316 kts | 172° |
| 2026-04-30 19:48 | 45.47997 | 20.21673 | 13443 ft | 314 kts | 172° |
| 2026-04-30 19:48 | 45.45831 | 20.22057 | 13100 ft | 312 kts | 172° |
| 2026-04-30 19:48 | 45.43679 | 20.22437 | 12768 ft | 310 kts | 172° |
| 2026-04-30 19:49 | 45.41534 | 20.22606 | 12422 ft | 309 kts | 186° |
| 2026-04-30 19:49 | 45.37347 | 20.21486 | 11819 ft | 304 kts | 191° |
| 2026-04-30 19:49 | 45.35277 | 20.20886 | 11511 ft | 302 kts | 191° |
| 2026-04-30 19:50 | 45.33215 | 20.20300 | 11182 ft | 301 kts | 191° |
| 2026-04-30 19:50 | 45.31167 | 20.19728 | 10867 ft | 300 kts | 191° |
| 2026-04-30 19:50 | 45.29124 | 20.19164 | 10558 ft | 298 kts | 190° |
| 2026-04-30 19:50 | 45.27088 | 20.18608 | 10192 ft | 299 kts | 190° |
| 2026-04-30 19:51 | 45.25057 | 20.18056 | 9911 ft | 295 kts | 190° |
| 2026-04-30 19:51 | 45.23064 | 20.17516 | 9576 ft | 294 kts | 190° |
| 2026-04-30 19:51 | 45.21063 | 20.16975 | 9270 ft | 291 kts | 190° |
| 2026-04-30 19:51 | 45.19079 | 20.16439 | 8969 ft | 289 kts | 190° |
| 2026-04-30 19:52 | 45.17110 | 20.15908 | 8678 ft | 287 kts | 189° |
| 2026-04-30 19:52 | 45.15154 | 20.15381 | 8377 ft | 285 kts | 189° |
| 2026-04-30 19:52 | 45.13221 | 20.14842 | 8093 ft | 283 kts | 193° |
| 2026-04-30 19:52 | 45.11439 | 20.13683 | 7804 ft | 281 kts | 212° |
| 2026-04-30 19:53 | 45.09800 | 20.12191 | 7523 ft | 280 kts | 212° |
| 2026-04-30 19:53 | 45.08156 | 20.10717 | 7235 ft | 278 kts | 212° |
| 2026-04-30 19:53 | 45.06695 | 20.08998 | 7065 ft | 271 kts | 234° |
| 2026-04-30 19:53 | 45.05955 | 20.06634 | 6965 ft | 257 kts | 263° |
| 2026-04-30 19:54 | 45.05985 | 20.04216 | 6904 ft | 238 kts | 285° |
| 2026-04-30 19:54 | 45.06566 | 20.02136 | 6794 ft | 220 kts | 304° |
| 2026-04-30 19:54 | 45.07347 | 20.00345 | 6683 ft | 207 kts | 306° |
| 2026-04-30 19:54 | 45.08091 | 19.98651 | 6550 ft | 199 kts | 306° |
| 2026-04-30 19:55 | 45.08815 | 19.97004 | 6461 ft | 194 kts | 306° |
| 2026-04-30 19:55 | 45.09523 | 19.95391 | 6366 ft | 193 kts | 306° |
| 2026-04-30 19:55 | 45.10226 | 19.93792 | 6277 ft | 194 kts | 306° |
| 2026-04-30 19:55 | 45.10948 | 19.92144 | 6180 ft | 195 kts | 306° |
| 2026-04-30 19:56 | 45.11658 | 19.90521 | 6088 ft | 196 kts | 306° |
| 2026-04-30 19:56 | 45.12372 | 19.88883 | 6005 ft | 196 kts | 306° |
| 2026-04-30 19:56 | 45.13090 | 19.87237 | 5904 ft | 197 kts | 306° |
| 2026-04-30 19:56 | 45.13805 | 19.85580 | 5808 ft | 198 kts | 302° |
| 2026-04-30 19:57 | 45.14067 | 19.83660 | 5683 ft | 206 kts | 262° |
| 2026-04-30 19:57 | 45.13360 | 19.81928 | 5600 ft | 207 kts | 218° |
| 2026-04-30 19:57 | 45.12163 | 19.80879 | 5554 ft | 205 kts | 210° |
| 2026-04-30 19:57 | 45.10928 | 19.79835 | 5444 ft | 207 kts | 211° |
| 2026-04-30 19:58 | 45.09692 | 19.78776 | 5357 ft | 208 kts | 211° |
| 2026-04-30 19:58 | 45.08447 | 19.77704 | 5244 ft | 210 kts | 211° |
| 2026-04-30 19:58 | 45.07119 | 19.76894 | 5106 ft | 209 kts | 184° |
| 2026-04-30 19:58 | 45.05748 | 19.77287 | 5025 ft | 199 kts | 143° |
| 2026-04-30 19:59 | 45.04783 | 19.78638 | 4887 ft | 193 kts | 120° |
| 2026-04-30 19:59 | 45.04061 | 19.80223 | 4719 ft | 191 kts | 117° |
| 2026-04-30 19:59 | 45.02693 | 19.83395 | 4352 ft | 190 kts | 116° |
| 2026-04-30 20:00 | 45.02003 | 19.84988 | 4166 ft | 189 kts | 116° |
| 2026-04-30 20:00 | 45.01314 | 19.86575 | 3988 ft | 189 kts | 116° |
| 2026-04-30 20:00 | 45.00624 | 19.88156 | 3799 ft | 189 kts | 116° |
| 2026-04-30 20:00 | 44.99936 | 19.89731 | 3617 ft | 188 kts | 116° |
| 2026-04-30 20:01 | 44.98532 | 19.92870 | 3256 ft | 189 kts | 117° |
| 2026-04-30 20:01 | 44.97829 | 19.94437 | 3112 ft | 188 kts | 117° |
| 2026-04-30 20:01 | 44.97146 | 19.95961 | 3021 ft | 183 kts | 116° |
| 2026-04-30 20:02 | 44.95789 | 19.99009 | 2973 ft | 176 kts | 116° |
| 2026-04-30 20:02 | 44.95156 | 20.00426 | 2962 ft | 165 kts | 116° |
| 2026-04-30 20:03 | 44.93971 | 20.03090 | 2973 ft | 158 kts | 115° |
| 2026-04-30 20:03 | 44.93368 | 20.04456 | 3005 ft | 168 kts | 116° |
| 2026-04-30 20:03 | 44.92752 | 20.05839 | 3030 ft | 162 kts | 116° |
| 2026-04-30 20:03 | 44.92167 | 20.07151 | 2989 ft | 154 kts | 115° |
| 2026-04-30 20:04 | 44.91600 | 20.08429 | 2985 ft | 153 kts | 115° |
| 2026-04-30 20:04 | 44.91032 | 20.09710 | 2998 ft | 154 kts | 115° |
| 2026-04-30 20:04 | 44.90472 | 20.10971 | 2995 ft | 154 kts | 115° |
| 2026-04-30 20:05 | 44.89307 | 20.13634 | 2438 ft | 159 kts | 113° |
| 2026-04-30 20:05 | 44.88772 | 20.14984 | 2011 ft | 156 kts | 112° |
| 2026-04-30 20:05 | 44.87735 | 20.17619 | 1260 ft | 149 kts | 112° |
| 2026-04-30 20:06 | 44.87219 | 20.18891 | 1031 ft | 151 kts | 118° |
| 2026-04-30 20:06 | 44.86582 | 20.20102 | 948 ft | 156 kts | 126° |
| 2026-04-30 20:06 | 44.85961 | 20.21326 | 969 ft | 153 kts | 109° |
| 2026-04-30 20:06 | 44.85524 | 20.22702 | 910 ft | 153 kts | 114° |
| 2026-04-30 20:07 | 44.84931 | 20.23959 | 890 ft | 149 kts | 124° |
| 2026-04-30 20:07 | 44.84348 | 20.25182 | 820 ft | 154 kts | 121° |
| 2026-04-30 20:07 | 44.83240 | 20.27827 | 535 ft | 155 kts | 128° |
| 2026-04-30 20:08 | 44.82674 | 20.29067 | 385 ft | 150 kts | 124° |
| 2026-04-30 20:08 | 44.82142 | 20.30242 | 327 ft | 118 kts | 121° |
| 2026-04-30 20:08 | 44.81822 | 20.30967 | 332 ft | 56 kts | 122° |
| 2026-04-30 20:08 | 44.81687 | 20.31270 | 333 ft | 31 kts | 122° |
| 2026-04-30 20:09 | 44.81564 | 20.31545 | 332 ft | 35 kts | 122° |
| 2026-04-30 20:09 | 44.81435 | 20.31837 | 338 ft | 34 kts | 122° |
| 2026-04-30 20:09 | 44.81190 | 20.32285 | 338 ft | 4 kts | 159° |
| 2026-04-30 20:10 | 44.81119 | 20.32301 | 341 ft | 7 kts | 180° |
| 2026-04-30 20:10 | 44.81067 | 20.32287 | 340 ft | 8 kts | 202° |
| 2026-04-30 20:10 | 44.81014 | 20.32239 | 345 ft | 10 kts | 223° |
| 2026-04-30 20:11 | 44.81028 | 20.32047 | 339 ft | 14 kts | 301° |
| 2026-04-30 20:11 | 44.81090 | 20.31910 | 336 ft | 19 kts | 302° |
| 2026-04-30 20:11 | 44.81169 | 20.31732 | 335 ft | 24 kts | 302° |
| 2026-04-30 20:12 | 44.81351 | 20.31321 | 334 ft | 23 kts | 302° |
| 2026-04-30 20:12 | 44.81435 | 20.31130 | 335 ft | 23 kts | 302° |
| 2026-04-30 20:12 | 44.81517 | 20.30945 | 335 ft | 22 kts | 302° |
| 2026-04-30 20:13 | 44.81597 | 20.30767 | 333 ft | 21 kts | 302° |
| 2026-04-30 20:13 | 44.81675 | 20.30594 | 332 ft | 21 kts | 302° |
| 2026-04-30 20:13 | 44.81749 | 20.30424 | 332 ft | 20 kts | 301° |
| 2026-04-30 20:13 | 44.81821 | 20.30260 | 328 ft | 19 kts | 301° |
| 2026-04-30 20:14 | 44.81891 | 20.30101 | 329 ft | 19 kts | 302° |
| 2026-04-30 20:14 | 44.81959 | 20.29948 | 328 ft | 18 kts | 302° |
| 2026-04-30 20:14 | 44.82026 | 20.29796 | 326 ft | 19 kts | 302° |
| 2026-04-30 20:14 | 44.82104 | 20.29618 | 327 ft | 23 kts | 302° |
| 2026-04-30 20:15 | 44.82190 | 20.29425 | 328 ft | 23 kts | 301° |
| 2026-04-30 20:15 | 44.82254 | 20.29280 | 326 ft | 0 kts | 302° |
| 2026-04-30 20:16 | 44.82259 | 20.29269 | 325 ft | 4 kts | 305° |
| 2026-04-30 20:17 | 44.82283 | 20.29217 | 326 ft | 9 kts | 302° |
| 2026-04-30 20:17 | 44.82275 | 20.29128 | 326 ft | 4 kts | 216° |
| 2026-04-30 20:17 | 44.82269 | 20.29125 | 327 ft | 3 kts | 197° |
| 2026-04-30 20:17 | 44.82239 | 20.29139 | 325 ft | 7 kts | 145° |
| 2026-04-30 20:18 | 44.82203 | 20.29206 | 326 ft | 10 kts | 122° |
| 2026-04-30 20:18 | 44.82157 | 20.29310 | 328 ft | 15 kts | 122° |
| 2026-04-30 20:18 | 44.82095 | 20.29448 | 327 ft | 18 kts | 123° |
| 2026-04-30 20:18 | 44.82075 | 20.29477 | 328 ft | 0 kts | 150° |
| 2026-04-30 20:19 | 44.82066 | 20.29479 | 328 ft | 3 kts | 172° |
| 2026-04-30 20:19 | 44.82033 | 20.29465 | 327 ft | 7 kts | 205° |
| 2026-04-30 20:19 | 44.81982 | 20.29421 | 326 ft | 10 kts | 212° |
| 2026-04-30 20:19 | 44.81918 | 20.29367 | 328 ft | 11 kts | 211° |
| 2026-04-30 20:20 | 44.81856 | 20.29312 | 325 ft | 10 kts | 212° |
| 2026-04-30 20:20 | 44.81795 | 20.29258 | 329 ft | 10 kts | 212° |
| 2026-04-30 20:20 | 44.81736 | 20.29207 | 326 ft | 10 kts | 211° |
| 2026-04-30 20:20 | 44.81679 | 20.29155 | 325 ft | 10 kts | 219° |
| 2026-04-30 20:21 | 44.81677 | 20.29152 | 325 ft | 0 kts | 228° |
| 2026-04-30 20:21 | 44.81675 | 20.29144 | 326 ft | 3 kts | 249° |
| 2026-04-30 20:21 | 44.81684 | 20.29107 | 325 ft | 6 kts | 300° |
| 2026-04-30 20:21 | 44.81698 | 20.29075 | 325 ft | 1 kts | 298° |
| 2026-04-30 20:22 | 44.81699 | 20.29072 | 326 ft | 0 kts | 296° |